sensor_id;sensor_type;location;lat;lon;timestamp;P1;durP1;ratioP1;P2;durP2;ratioP2
72771;SDS011;60894;42.544;1.516;2023-02-15T00:01:37;8.90;;;2.43;;
72771;SDS011;60894;42.544;1.516;2023-02-15T00:04:04;8.18;;;2.15;;
72771;SDS011;60894;42.544;1.516;2023-02-15T00:06:32;7.60;;;2.60;;
72771;SDS011;60894;42.544;1.516;2023-02-15T00:08:59;6.68;;;2.35;;
72771;SDS011;60894;42.544;1.516;2023-02-15T00:11:27;6.07;;;2.13;;
72771;SDS011;60894;42.544;1.516;2023-02-15T00:14:08;6.97;;;2.27;;
72771;SDS011;60894;42.544;1.516;2023-02-15T00:16:39;4.53;;;1.60;;
72771;SDS011;60894;42.544;1.516;2023-02-15T00:19:07;4.28;;;1.65;;
72771;SDS011;60894;42.544;1.516;2023-02-15T00:21:35;6.13;;;1.80;;
72771;SDS011;60894;42.544;1.516;2023-02-15T00:24:03;4.60;;;1.50;;
72771;SDS011;60894;42.544;1.516;2023-02-15T00:26:32;7.40;;;1.80;;
72771;SDS011;60894;42.544;1.516;2023-02-15T00:28:59;3.42;;;1.40;;
72771;SDS011;60894;42.544;1.516;2023-02-15T00:31:27;7.32;;;2.13;;
72771;SDS011;60894;42.544;1.516;2023-02-15T00:34:02;7.10;;;2.10;;
72771;SDS011;60894;42.544;1.516;2023-02-15T00:36:29;6.13;;;1.90;;
72771;SDS011;60894;42.544;1.516;2023-02-15T00:38:57;6.63;;;1.80;;
72771;SDS011;60894;42.544;1.516;2023-02-15T00:41:24;7.50;;;1.88;;
72771;SDS011;60894;42.544;1.516;2023-02-15T00:43:51;5.40;;;1.75;;
72771;SDS011;60894;42.544;1.516;2023-02-15T00:46:18;5.07;;;1.52;;
72771;SDS011;60894;42.544;1.516;2023-02-15T00:48:45;5.70;;;1.50;;
72771;SDS011;60894;42.544;1.516;2023-02-15T00:51:14;4.07;;;1.20;;
72771;SDS011;60894;42.544;1.516;2023-02-15T00:53:42;4.60;;;1.23;;
72771;SDS011;60894;42.544;1.516;2023-02-15T00:56:09;4.68;;;1.50;;
72771;SDS011;60894;42.544;1.516;2023-02-15T00:58:36;6.45;;;1.98;;
72771;SDS011;60894;42.544;1.516;2023-02-15T01:01:04;4.60;;;1.52;;
72771;SDS011;60894;42.544;1.516;2023-02-15T01:03:33;5.43;;;1.53;;
72771;SDS011;60894;42.544;1.516;2023-02-15T01:06:00;4.68;;;1.60;;
72771;SDS011;60894;42.544;1.516;2023-02-15T01:08:29;3.65;;;1.30;;
72771;SDS011;60894;42.544;1.516;2023-02-15T01:10:59;4.28;;;1.27;;
72771;SDS011;60894;42.544;1.516;2023-02-15T01:13:30;5.90;;;1.30;;
72771;SDS011;60894;42.544;1.516;2023-02-15T01:15:57;3.43;;;1.40;;
72771;SDS011;60894;42.544;1.516;2023-02-15T01:18:24;6.03;;;1.40;;
72771;SDS011;60894;42.544;1.516;2023-02-15T01:20:52;3.45;;;1.10;;
72771;SDS011;60894;42.544;1.516;2023-02-15T01:23:19;3.83;;;1.20;;
72771;SDS011;60894;42.544;1.516;2023-02-15T01:25:48;4.10;;;1.17;;
72771;SDS011;60894;42.544;1.516;2023-02-15T01:28:15;5.20;;;1.30;;
72771;SDS011;60894;42.544;1.516;2023-02-15T01:30:42;6.00;;;1.20;;
72771;SDS011;60894;42.544;1.516;2023-02-15T01:33:09;3.47;;;1.17;;
72771;SDS011;60894;42.544;1.516;2023-02-15T01:35:43;4.28;;;1.38;;
72771;SDS011;60894;42.544;1.516;2023-02-15T01:38:11;3.00;;;0.85;;
72771;SDS011;60894;42.544;1.516;2023-02-15T01:40:38;3.87;;;1.00;;
72771;SDS011;60894;42.544;1.516;2023-02-15T01:43:09;3.50;;;0.88;;
72771;SDS011;60894;42.544;1.516;2023-02-15T01:45:37;4.07;;;1.00;;
72771;SDS011;60894;42.544;1.516;2023-02-15T01:48:08;4.55;;;1.30;;
72771;SDS011;60894;42.544;1.516;2023-02-15T01:50:46;6.55;;;1.80;;
72771;SDS011;60894;42.544;1.516;2023-02-15T01:53:15;4.73;;;1.53;;
72771;SDS011;60894;42.544;1.516;2023-02-15T01:55:46;3.88;;;1.40;;
72771;SDS011;60894;42.544;1.516;2023-02-15T01:58:18;4.38;;;1.40;;
72771;SDS011;60894;42.544;1.516;2023-02-15T02:00:46;5.80;;;1.55;;
72771;SDS011;60894;42.544;1.516;2023-02-15T02:03:13;4.13;;;1.42;;
72771;SDS011;60894;42.544;1.516;2023-02-15T02:05:41;4.73;;;1.30;;
72771;SDS011;60894;42.544;1.516;2023-02-15T02:08:08;4.95;;;1.30;;
72771;SDS011;60894;42.544;1.516;2023-02-15T02:10:36;4.68;;;1.00;;
72771;SDS011;60894;42.544;1.516;2023-02-15T02:13:03;5.10;;;1.55;;
72771;SDS011;60894;42.544;1.516;2023-02-15T02:15:36;4.97;;;1.25;;
72771;SDS011;60894;42.544;1.516;2023-02-15T02:18:11;4.93;;;1.40;;
72771;SDS011;60894;42.544;1.516;2023-02-15T02:20:52;4.55;;;1.25;;
72771;SDS011;60894;42.544;1.516;2023-02-15T02:23:38;3.60;;;1.25;;
72771;SDS011;60894;42.544;1.516;2023-02-15T02:33:12;3.13;;;1.00;;
72771;SDS011;60894;42.544;1.516;2023-02-15T02:35:50;3.78;;;1.20;;
72771;SDS011;60894;42.544;1.516;2023-02-15T02:38:25;4.93;;;1.27;;
72771;SDS011;60894;42.544;1.516;2023-02-15T02:40:57;3.35;;;1.10;;
72771;SDS011;60894;42.544;1.516;2023-02-15T02:43:35;2.85;;;1.20;;
72771;SDS011;60894;42.544;1.516;2023-02-15T02:46:08;4.63;;;1.20;;
72771;SDS011;60894;42.544;1.516;2023-02-15T02:48:44;4.63;;;1.15;;
72771;SDS011;60894;42.544;1.516;2023-02-15T02:51:14;2.35;;;0.75;;
72771;SDS011;60894;42.544;1.516;2023-02-15T02:53:46;2.40;;;0.95;;
72771;SDS011;60894;42.544;1.516;2023-02-15T02:56:20;4.03;;;1.05;;
72771;SDS011;60894;42.544;1.516;2023-02-15T02:58:51;5.27;;;1.37;;
72771;SDS011;60894;42.544;1.516;2023-02-15T03:01:26;3.47;;;1.10;;
72771;SDS011;60894;42.544;1.516;2023-02-15T03:03:58;4.55;;;1.15;;
72771;SDS011;60894;42.544;1.516;2023-02-15T03:06:29;2.72;;;1.10;;
72771;SDS011;60894;42.544;1.516;2023-02-15T03:09:01;2.28;;;0.90;;
72771;SDS011;60894;42.544;1.516;2023-02-15T03:11:33;3.50;;;1.10;;
72771;SDS011;60894;42.544;1.516;2023-02-15T03:14:00;2.95;;;1.00;;
72771;SDS011;60894;42.544;1.516;2023-02-15T03:16:27;2.13;;;0.77;;
72771;SDS011;60894;42.544;1.516;2023-02-15T03:18:55;4.10;;;1.08;;
72771;SDS011;60894;42.544;1.516;2023-02-15T03:21:29;2.13;;;0.80;;
72771;SDS011;60894;42.544;1.516;2023-02-15T03:24:00;1.93;;;0.67;;
72771;SDS011;60894;42.544;1.516;2023-02-15T03:26:32;2.95;;;0.88;;
72771;SDS011;60894;42.544;1.516;2023-02-15T03:29:00;2.28;;;0.80;;
72771;SDS011;60894;42.544;1.516;2023-02-15T03:31:31;3.10;;;1.00;;
72771;SDS011;60894;42.544;1.516;2023-02-15T03:34:03;4.85;;;1.00;;
72771;SDS011;60894;42.544;1.516;2023-02-15T03:36:33;3.07;;;1.27;;
72771;SDS011;60894;42.544;1.516;2023-02-15T03:39:08;5.60;;;0.98;;
72771;SDS011;60894;42.544;1.516;2023-02-15T03:41:39;4.25;;;0.90;;
72771;SDS011;60894;42.544;1.516;2023-02-15T03:44:11;4.05;;;0.95;;
72771;SDS011;60894;42.544;1.516;2023-02-15T03:46:43;3.20;;;1.10;;
72771;SDS011;60894;42.544;1.516;2023-02-15T03:49:17;3.47;;;1.10;;
72771;SDS011;60894;42.544;1.516;2023-02-15T03:51:49;4.75;;;1.10;;
72771;SDS011;60894;42.544;1.516;2023-02-15T03:54:20;3.13;;;1.10;;
72771;SDS011;60894;42.544;1.516;2023-02-15T03:57:08;3.83;;;0.90;;
72771;SDS011;60894;42.544;1.516;2023-02-15T03:59:54;3.95;;;1.00;;
72771;SDS011;60894;42.544;1.516;2023-02-15T04:02:40;3.53;;;1.00;;
72771;SDS011;60894;42.544;1.516;2023-02-15T04:05:19;2.33;;;0.90;;
72771;SDS011;60894;42.544;1.516;2023-02-15T04:07:46;4.15;;;0.98;;
72771;SDS011;60894;42.544;1.516;2023-02-15T04:10:13;2.60;;;0.80;;
72771;SDS011;60894;42.544;1.516;2023-02-15T04:13:11;3.58;;;0.90;;
72771;SDS011;60894;42.544;1.516;2023-02-15T04:15:38;3.80;;;1.00;;
72771;SDS011;60894;42.544;1.516;2023-02-15T04:18:23;2.15;;;0.77;;
72771;SDS011;60894;42.544;1.516;2023-02-15T04:21:09;5.75;;;0.80;;
72771;SDS011;60894;42.544;1.516;2023-02-15T04:23:53;2.75;;;0.65;;
72771;SDS011;60894;42.544;1.516;2023-02-15T04:26:37;1.50;;;0.70;;
72771;SDS011;60894;42.544;1.516;2023-02-15T04:29:04;2.40;;;0.90;;
72771;SDS011;60894;42.544;1.516;2023-02-15T04:31:31;2.95;;;1.02;;
72771;SDS011;60894;42.544;1.516;2023-02-15T04:33:58;2.95;;;0.90;;
72771;SDS011;60894;42.544;1.516;2023-02-15T04:36:27;2.58;;;0.77;;
72771;SDS011;60894;42.544;1.516;2023-02-15T04:38:54;2.28;;;0.70;;
72771;SDS011;60894;42.544;1.516;2023-02-15T04:41:21;3.63;;;0.90;;
72771;SDS011;60894;42.544;1.516;2023-02-15T04:43:48;2.50;;;0.80;;
72771;SDS011;60894;42.544;1.516;2023-02-15T04:46:14;1.95;;;0.80;;
72771;SDS011;60894;42.544;1.516;2023-02-15T04:48:41;3.55;;;0.90;;
72771;SDS011;60894;42.544;1.516;2023-02-15T04:51:09;3.45;;;0.80;;
72771;SDS011;60894;42.544;1.516;2023-02-15T04:53:37;3.90;;;0.80;;
72771;SDS011;60894;42.544;1.516;2023-02-15T04:56:04;2.15;;;0.75;;
72771;SDS011;60894;42.544;1.516;2023-02-15T04:58:31;2.05;;;0.80;;
72771;SDS011;60894;42.544;1.516;2023-02-15T05:00:58;2.15;;;0.80;;
72771;SDS011;60894;42.544;1.516;2023-02-15T05:03:25;2.95;;;0.75;;
72771;SDS011;60894;42.544;1.516;2023-02-15T05:05:52;2.97;;;0.90;;
72771;SDS011;60894;42.544;1.516;2023-02-15T05:08:19;4.78;;;1.00;;
72771;SDS011;60894;42.544;1.516;2023-02-15T05:10:48;2.28;;;0.80;;
72771;SDS011;60894;42.544;1.516;2023-02-15T05:13:15;2.65;;;0.80;;
72771;SDS011;60894;42.544;1.516;2023-02-15T05:15:46;3.83;;;1.00;;
72771;SDS011;60894;42.544;1.516;2023-02-15T05:18:13;5.93;;;0.90;;
72771;SDS011;60894;42.544;1.516;2023-02-15T05:20:40;3.78;;;0.68;;
72771;SDS011;60894;42.544;1.516;2023-02-15T05:23:07;2.67;;;1.00;;
72771;SDS011;60894;42.544;1.516;2023-02-15T05:25:34;4.93;;;0.90;;
72771;SDS011;60894;42.544;1.516;2023-02-15T05:28:20;2.20;;;0.90;;
72771;SDS011;60894;42.544;1.516;2023-02-15T05:30:48;2.63;;;0.70;;
72771;SDS011;60894;42.544;1.516;2023-02-15T05:33:24;2.00;;;0.68;;
72771;SDS011;60894;42.544;1.516;2023-02-15T05:35:51;3.42;;;0.80;;
72771;SDS011;60894;42.544;1.516;2023-02-15T05:38:18;2.17;;;0.57;;
72771;SDS011;60894;42.544;1.516;2023-02-15T05:40:45;3.83;;;0.80;;
72771;SDS011;60894;42.544;1.516;2023-02-15T05:43:12;2.17;;;0.60;;
72771;SDS011;60894;42.544;1.516;2023-02-15T05:45:41;1.38;;;0.50;;
72771;SDS011;60894;42.544;1.516;2023-02-15T05:48:11;3.17;;;0.95;;
72771;SDS011;60894;42.544;1.516;2023-02-15T05:50:38;6.75;;;0.98;;
72771;SDS011;60894;42.544;1.516;2023-02-15T05:53:05;3.60;;;0.85;;
72771;SDS011;60894;42.544;1.516;2023-02-15T05:55:32;5.13;;;1.13;;
72771;SDS011;60894;42.544;1.516;2023-02-15T05:57:59;5.75;;;1.10;;
72771;SDS011;60894;42.544;1.516;2023-02-15T06:00:26;5.32;;;1.10;;
72771;SDS011;60894;42.544;1.516;2023-02-15T06:02:54;2.88;;;0.90;;
72771;SDS011;60894;42.544;1.516;2023-02-15T06:05:21;2.95;;;0.73;;
72771;SDS011;60894;42.544;1.516;2023-02-15T06:07:49;3.27;;;0.90;;
72771;SDS011;60894;42.544;1.516;2023-02-15T06:10:16;2.97;;;0.63;;
72771;SDS011;60894;42.544;1.516;2023-02-15T06:12:43;3.45;;;0.90;;
72771;SDS011;60894;42.544;1.516;2023-02-15T06:15:10;8.25;;;2.10;;
72771;SDS011;60894;42.544;1.516;2023-02-15T06:17:40;5.25;;;1.40;;
72771;SDS011;60894;42.544;1.516;2023-02-15T06:20:09;2.97;;;1.20;;
72771;SDS011;60894;42.544;1.516;2023-02-15T06:22:37;5.05;;;1.40;;
72771;SDS011;60894;42.544;1.516;2023-02-15T06:25:04;3.63;;;1.27;;
72771;SDS011;60894;42.544;1.516;2023-02-15T06:27:35;2.83;;;0.80;;
72771;SDS011;60894;42.544;1.516;2023-02-15T06:30:02;1.88;;;0.82;;
72771;SDS011;60894;42.544;1.516;2023-02-15T06:32:30;2.50;;;1.13;;
72771;SDS011;60894;42.544;1.516;2023-02-15T06:34:57;1.95;;;0.90;;
72771;SDS011;60894;42.544;1.516;2023-02-15T06:37:26;4.15;;;1.05;;
72771;SDS011;60894;42.544;1.516;2023-02-15T06:39:53;5.00;;;1.27;;
72771;SDS011;60894;42.544;1.516;2023-02-15T06:42:20;4.45;;;1.35;;
72771;SDS011;60894;42.544;1.516;2023-02-15T06:44:47;13.07;;;6.10;;
72771;SDS011;60894;42.544;1.516;2023-02-15T06:47:14;9.68;;;4.63;;
72771;SDS011;60894;42.544;1.516;2023-02-15T06:49:41;9.23;;;4.50;;
72771;SDS011;60894;42.544;1.516;2023-02-15T06:52:08;8.35;;;3.17;;
72771;SDS011;60894;42.544;1.516;2023-02-15T06:54:37;9.85;;;2.63;;
72771;SDS011;60894;42.544;1.516;2023-02-15T06:57:04;9.73;;;3.20;;
72771;SDS011;60894;42.544;1.516;2023-02-15T06:59:31;6.90;;;2.97;;
72771;SDS011;60894;42.544;1.516;2023-02-15T07:01:58;9.45;;;3.70;;
72771;SDS011;60894;42.544;1.516;2023-02-15T07:04:25;9.45;;;3.95;;
72771;SDS011;60894;42.544;1.516;2023-02-15T07:06:53;9.45;;;3.95;;
72771;SDS011;60894;42.544;1.516;2023-02-15T07:09:20;11.43;;;3.73;;
72771;SDS011;60894;42.544;1.516;2023-02-15T07:11:49;9.13;;;2.38;;
72771;SDS011;60894;42.544;1.516;2023-02-15T07:14:33;9.20;;;2.65;;
72771;SDS011;60894;42.544;1.516;2023-02-15T07:17:00;6.85;;;2.00;;
72771;SDS011;60894;42.544;1.516;2023-02-15T07:19:28;13.48;;;2.17;;
72771;SDS011;60894;42.544;1.516;2023-02-15T07:21:55;8.27;;;2.47;;
72771;SDS011;60894;42.544;1.516;2023-02-15T07:24:22;9.63;;;3.17;;
72771;SDS011;60894;42.544;1.516;2023-02-15T07:26:51;9.90;;;2.70;;
72771;SDS011;60894;42.544;1.516;2023-02-15T07:29:18;11.23;;;2.90;;
72771;SDS011;60894;42.544;1.516;2023-02-15T07:31:45;10.23;;;2.90;;
72771;SDS011;60894;42.544;1.516;2023-02-15T07:34:12;10.00;;;2.80;;
72771;SDS011;60894;42.544;1.516;2023-02-15T07:36:39;9.68;;;3.60;;
72771;SDS011;60894;42.544;1.516;2023-02-15T07:39:06;9.50;;;4.05;;
72771;SDS011;60894;42.544;1.516;2023-02-15T07:41:33;11.32;;;3.53;;
72771;SDS011;60894;42.544;1.516;2023-02-15T07:44:01;13.70;;;4.35;;
72771;SDS011;60894;42.544;1.516;2023-02-15T07:46:28;15.10;;;3.93;;
72771;SDS011;60894;42.544;1.516;2023-02-15T07:48:55;9.60;;;4.25;;
72771;SDS011;60894;42.544;1.516;2023-02-15T07:51:22;8.63;;;3.38;;
72771;SDS011;60894;42.544;1.516;2023-02-15T07:53:49;10.40;;;4.20;;
72771;SDS011;60894;42.544;1.516;2023-02-15T07:56:16;14.77;;;4.15;;
72771;SDS011;60894;42.544;1.516;2023-02-15T07:58:44;12.17;;;4.20;;
72771;SDS011;60894;42.544;1.516;2023-02-15T08:01:23;9.50;;;3.80;;
72771;SDS011;60894;42.544;1.516;2023-02-15T08:03:52;7.68;;;2.70;;
72771;SDS011;60894;42.544;1.516;2023-02-15T08:06:19;8.65;;;2.92;;
72771;SDS011;60894;42.544;1.516;2023-02-15T08:08:47;8.95;;;2.70;;
72771;SDS011;60894;42.544;1.516;2023-02-15T08:11:14;10.47;;;3.43;;
72771;SDS011;60894;42.544;1.516;2023-02-15T08:13:58;10.15;;;3.72;;
72771;SDS011;60894;42.544;1.516;2023-02-15T08:16:30;9.00;;;3.50;;
72771;SDS011;60894;42.544;1.516;2023-02-15T08:18:59;9.35;;;3.00;;
72771;SDS011;60894;42.544;1.516;2023-02-15T08:21:27;8.52;;;3.20;;
72771;SDS011;60894;42.544;1.516;2023-02-15T08:23:55;13.53;;;3.43;;
72771;SDS011;60894;42.544;1.516;2023-02-15T08:26:23;9.93;;;3.10;;
72771;SDS011;60894;42.544;1.516;2023-02-15T08:28:50;6.63;;;2.60;;
72771;SDS011;60894;42.544;1.516;2023-02-15T08:31:18;6.38;;;2.22;;
72771;SDS011;60894;42.544;1.516;2023-02-15T08:33:47;10.60;;;2.45;;
72771;SDS011;60894;42.544;1.516;2023-02-15T08:36:16;9.30;;;3.33;;
72771;SDS011;60894;42.544;1.516;2023-02-15T08:38:44;9.23;;;2.90;;
72771;SDS011;60894;42.544;1.516;2023-02-15T08:41:12;13.00;;;4.75;;
72771;SDS011;60894;42.544;1.516;2023-02-15T08:43:40;39.70;;;12.55;;
72771;SDS011;60894;42.544;1.516;2023-02-15T08:46:10;10.90;;;4.20;;
72771;SDS011;60894;42.544;1.516;2023-02-15T08:48:38;9.30;;;3.47;;
72771;SDS011;60894;42.544;1.516;2023-02-15T08:51:07;11.05;;;3.05;;
72771;SDS011;60894;42.544;1.516;2023-02-15T08:53:37;12.07;;;3.17;;
72771;SDS011;60894;42.544;1.516;2023-02-15T08:56:05;10.20;;;3.20;;
72771;SDS011;60894;42.544;1.516;2023-02-15T08:58:32;11.35;;;3.20;;
72771;SDS011;60894;42.544;1.516;2023-02-15T09:01:00;9.07;;;4.27;;
72771;SDS011;60894;42.544;1.516;2023-02-15T09:03:28;12.43;;;4.30;;
72771;SDS011;60894;42.544;1.516;2023-02-15T09:05:58;13.50;;;4.20;;
72771;SDS011;60894;42.544;1.516;2023-02-15T09:08:27;13.43;;;5.90;;
72771;SDS011;60894;42.544;1.516;2023-02-15T09:11:03;17.23;;;6.90;;
72771;SDS011;60894;42.544;1.516;2023-02-15T09:13:31;10.10;;;4.53;;
72771;SDS011;60894;42.544;1.516;2023-02-15T09:15:59;14.10;;;4.20;;
72771;SDS011;60894;42.544;1.516;2023-02-15T09:18:27;10.52;;;3.28;;
72771;SDS011;60894;42.544;1.516;2023-02-15T09:20:55;8.65;;;3.30;;
72771;SDS011;60894;42.544;1.516;2023-02-15T09:23:22;6.47;;;1.92;;
72771;SDS011;60894;42.544;1.516;2023-02-15T09:25:51;7.27;;;2.30;;
72771;SDS011;60894;42.544;1.516;2023-02-15T09:28:18;7.72;;;2.50;;
72771;SDS011;60894;42.544;1.516;2023-02-15T09:30:45;7.15;;;2.90;;
72771;SDS011;60894;42.544;1.516;2023-02-15T09:33:12;8.02;;;3.40;;
72771;SDS011;60894;42.544;1.516;2023-02-15T09:35:39;14.32;;;5.35;;
72771;SDS011;60894;42.544;1.516;2023-02-15T09:38:06;10.27;;;3.20;;
72771;SDS011;60894;42.544;1.516;2023-02-15T09:40:35;10.02;;;2.63;;
72771;SDS011;60894;42.544;1.516;2023-02-15T09:43:22;8.75;;;2.80;;
72771;SDS011;60894;42.544;1.516;2023-02-15T09:46:14;8.18;;;2.83;;
72771;SDS011;60894;42.544;1.516;2023-02-15T09:48:52;9.65;;;3.20;;
72771;SDS011;60894;42.544;1.516;2023-02-15T09:51:43;6.90;;;2.30;;
72771;SDS011;60894;42.544;1.516;2023-02-15T09:54:36;8.35;;;2.00;;
72771;SDS011;60894;42.544;1.516;2023-02-15T09:57:16;8.18;;;2.38;;
72771;SDS011;60894;42.544;1.516;2023-02-15T09:59:53;9.73;;;2.75;;
72771;SDS011;60894;42.544;1.516;2023-02-15T10:02:30;10.05;;;3.40;;
72771;SDS011;60894;42.544;1.516;2023-02-15T10:05:11;7.63;;;2.37;;
72771;SDS011;60894;42.544;1.516;2023-02-15T10:07:59;9.90;;;3.17;;
72771;SDS011;60894;42.544;1.516;2023-02-15T10:10:45;7.82;;;2.47;;
72771;SDS011;60894;42.544;1.516;2023-02-15T10:13:44;6.45;;;1.65;;
72771;SDS011;60894;42.544;1.516;2023-02-15T10:16:22;5.63;;;1.60;;
72771;SDS011;60894;42.544;1.516;2023-02-15T10:18:55;6.97;;;2.60;;
72771;SDS011;60894;42.544;1.516;2023-02-15T10:21:35;7.47;;;2.30;;
72771;SDS011;60894;42.544;1.516;2023-02-15T10:24:15;5.63;;;1.92;;
72771;SDS011;60894;42.544;1.516;2023-02-15T10:26:54;7.95;;;2.17;;
72771;SDS011;60894;42.544;1.516;2023-02-15T10:29:27;3.97;;;1.70;;
72771;SDS011;60894;42.544;1.516;2023-02-15T10:32:05;5.40;;;1.90;;
72771;SDS011;60894;42.544;1.516;2023-02-15T10:34:45;8.50;;;2.05;;
72771;SDS011;60894;42.544;1.516;2023-02-15T10:37:21;4.95;;;1.67;;
72771;SDS011;60894;42.544;1.516;2023-02-15T10:40:15;7.40;;;2.28;;
72771;SDS011;60894;42.544;1.516;2023-02-15T10:46:06;4.33;;;1.37;;
72771;SDS011;60894;42.544;1.516;2023-02-15T10:49:01;4.65;;;1.23;;
72771;SDS011;60894;42.544;1.516;2023-02-15T10:51:40;4.80;;;1.58;;
72771;SDS011;60894;42.544;1.516;2023-02-15T10:54:17;5.43;;;1.60;;
72771;SDS011;60894;42.544;1.516;2023-02-15T10:56:55;6.30;;;1.70;;
72771;SDS011;60894;42.544;1.516;2023-02-15T10:59:33;7.57;;;2.17;;
72771;SDS011;60894;42.544;1.516;2023-02-15T11:02:16;8.02;;;1.92;;
72771;SDS011;60894;42.544;1.516;2023-02-15T11:04:55;4.85;;;1.40;;
72771;SDS011;60894;42.544;1.516;2023-02-15T11:07:30;7.38;;;1.70;;
72771;SDS011;60894;42.544;1.516;2023-02-15T11:10:05;4.35;;;1.30;;
72771;SDS011;60894;42.544;1.516;2023-02-15T11:12:42;4.93;;;1.43;;
72771;SDS011;60894;42.544;1.516;2023-02-15T11:15:11;6.57;;;2.90;;
72771;SDS011;60894;42.544;1.516;2023-02-15T11:17:45;4.18;;;1.38;;
72771;SDS011;60894;42.544;1.516;2023-02-15T11:20:18;4.72;;;1.38;;
72771;SDS011;60894;42.544;1.516;2023-02-15T11:22:50;7.53;;;1.42;;
72771;SDS011;60894;42.544;1.516;2023-02-15T11:25:19;7.43;;;1.47;;
72771;SDS011;60894;42.544;1.516;2023-02-15T11:27:50;4.80;;;1.48;;
72771;SDS011;60894;42.544;1.516;2023-02-15T11:30:19;7.40;;;1.20;;
72771;SDS011;60894;42.544;1.516;2023-02-15T11:32:49;4.63;;;1.30;;
72771;SDS011;60894;42.544;1.516;2023-02-15T11:35:22;3.97;;;1.17;;
72771;SDS011;60894;42.544;1.516;2023-02-15T11:37:54;4.87;;;1.30;;
72771;SDS011;60894;42.544;1.516;2023-02-15T11:40:28;4.47;;;1.23;;
72771;SDS011;60894;42.544;1.516;2023-02-15T11:43:00;5.35;;;1.30;;
72771;SDS011;60894;42.544;1.516;2023-02-15T11:45:31;3.67;;;1.20;;
72771;SDS011;60894;42.544;1.516;2023-02-15T11:47:59;3.78;;;1.25;;
72771;SDS011;60894;42.544;1.516;2023-02-15T11:50:31;8.07;;;1.60;;
72771;SDS011;60894;42.544;1.516;2023-02-15T11:52:59;5.00;;;1.35;;
72771;SDS011;60894;42.544;1.516;2023-02-15T11:55:28;3.70;;;1.20;;
72771;SDS011;60894;42.544;1.516;2023-02-15T11:57:59;4.40;;;1.20;;
72771;SDS011;60894;42.544;1.516;2023-02-15T12:00:32;3.30;;;1.17;;
72771;SDS011;60894;42.544;1.516;2023-02-15T12:03:05;3.90;;;1.10;;
72771;SDS011;60894;42.544;1.516;2023-02-15T12:05:40;4.25;;;1.10;;
72771;SDS011;60894;42.544;1.516;2023-02-15T12:08:12;5.60;;;1.40;;
72771;SDS011;60894;42.544;1.516;2023-02-15T12:10:45;3.10;;;0.90;;
72771;SDS011;60894;42.544;1.516;2023-02-15T12:13:23;3.83;;;1.27;;
72771;SDS011;60894;42.544;1.516;2023-02-15T12:15:51;6.47;;;0.90;;
72771;SDS011;60894;42.544;1.516;2023-02-15T12:21:06;3.60;;;1.08;;
72771;SDS011;60894;42.544;1.516;2023-02-15T12:23:39;4.95;;;1.00;;
72771;SDS011;60894;42.544;1.516;2023-02-15T12:26:09;3.33;;;1.10;;
72771;SDS011;60894;42.544;1.516;2023-02-15T12:28:38;3.47;;;0.90;;
72771;SDS011;60894;42.544;1.516;2023-02-15T12:31:09;4.07;;;1.08;;
72771;SDS011;60894;42.544;1.516;2023-02-15T12:33:50;3.60;;;1.00;;
72771;SDS011;60894;42.544;1.516;2023-02-15T12:36:22;2.28;;;0.77;;
72771;SDS011;60894;42.544;1.516;2023-02-15T12:39:03;2.63;;;0.80;;
72771;SDS011;60894;42.544;1.516;2023-02-15T12:41:32;5.13;;;1.40;;
72771;SDS011;60894;42.544;1.516;2023-02-15T12:44:04;4.97;;;0.93;;
72771;SDS011;60894;42.544;1.516;2023-02-15T12:46:33;5.20;;;1.85;;
72771;SDS011;60894;42.544;1.516;2023-02-15T12:49:16;6.03;;;1.20;;
72771;SDS011;60894;42.544;1.516;2023-02-15T12:51:47;3.20;;;0.90;;
72771;SDS011;60894;42.544;1.516;2023-02-15T12:54:16;3.83;;;0.70;;
72771;SDS011;60894;42.544;1.516;2023-02-15T12:56:52;5.47;;;1.10;;
72771;SDS011;60894;42.544;1.516;2023-02-15T12:59:19;4.18;;;0.90;;
72771;SDS011;60894;42.544;1.516;2023-02-15T13:01:47;2.38;;;0.90;;
72771;SDS011;60894;42.544;1.516;2023-02-15T13:04:21;2.75;;;0.90;;
72771;SDS011;60894;42.544;1.516;2023-02-15T13:06:52;4.00;;;1.00;;
72771;SDS011;60894;42.544;1.516;2023-02-15T13:09:25;2.60;;;1.00;;
72771;SDS011;60894;42.544;1.516;2023-02-15T13:14:49;2.63;;;1.10;;
72771;SDS011;60894;42.544;1.516;2023-02-15T13:17:18;4.60;;;1.10;;
72771;SDS011;60894;42.544;1.516;2023-02-15T13:19:52;2.83;;;0.80;;
72771;SDS011;60894;42.544;1.516;2023-02-15T13:22:22;3.05;;;0.90;;
72771;SDS011;60894;42.544;1.516;2023-02-15T13:24:54;4.32;;;1.05;;
72771;SDS011;60894;42.544;1.516;2023-02-15T13:27:24;3.00;;;0.90;;
72771;SDS011;60894;42.544;1.516;2023-02-15T13:29:58;1.92;;;0.75;;
72771;SDS011;60894;42.544;1.516;2023-02-15T13:32:29;2.37;;;0.70;;
72771;SDS011;60894;42.544;1.516;2023-02-15T13:35:01;4.38;;;1.02;;
72771;SDS011;60894;42.544;1.516;2023-02-15T13:40:37;5.85;;;1.00;;
72771;SDS011;60894;42.544;1.516;2023-02-15T13:43:16;3.10;;;0.90;;
72771;SDS011;60894;42.544;1.516;2023-02-15T13:46:00;3.73;;;0.90;;
72771;SDS011;60894;42.544;1.516;2023-02-15T13:48:41;2.00;;;0.90;;
72771;SDS011;60894;42.544;1.516;2023-02-15T13:51:15;4.00;;;1.55;;
72771;SDS011;60894;42.544;1.516;2023-02-15T13:53:58;2.53;;;0.93;;
72771;SDS011;60894;42.544;1.516;2023-02-15T13:56:44;2.50;;;0.82;;
72771;SDS011;60894;42.544;1.516;2023-02-15T13:59:23;2.77;;;0.90;;
72771;SDS011;60894;42.544;1.516;2023-02-15T14:02:26;2.10;;;0.68;;
72771;SDS011;60894;42.544;1.516;2023-02-15T14:05:11;3.95;;;0.90;;
72771;SDS011;60894;42.544;1.516;2023-02-15T14:07:53;3.70;;;0.73;;
72771;SDS011;60894;42.544;1.516;2023-02-15T14:10:29;1.92;;;0.88;;
72771;SDS011;60894;42.544;1.516;2023-02-15T14:13:10;1.63;;;0.80;;
72771;SDS011;60894;42.544;1.516;2023-02-15T14:15:55;3.92;;;0.80;;
72771;SDS011;60894;42.544;1.516;2023-02-15T14:18:33;2.15;;;0.70;;
72771;SDS011;60894;42.544;1.516;2023-02-15T14:21:07;3.10;;;0.90;;
72771;SDS011;60894;42.544;1.516;2023-02-15T14:23:42;4.22;;;0.90;;
72771;SDS011;60894;42.544;1.516;2023-02-15T14:26:18;5.60;;;1.83;;
72771;SDS011;60894;42.544;1.516;2023-02-15T14:28:56;11.85;;;4.95;;
72771;SDS011;60894;42.544;1.516;2023-02-15T14:31:40;17.58;;;7.65;;
72771;SDS011;60894;42.544;1.516;2023-02-15T14:34:15;2.92;;;1.02;;
72771;SDS011;60894;42.544;1.516;2023-02-15T14:36:47;2.22;;;0.70;;
72771;SDS011;60894;42.544;1.516;2023-02-15T14:39:17;2.57;;;0.80;;
72771;SDS011;60894;42.544;1.516;2023-02-15T14:42:16;4.00;;;1.60;;
72771;SDS011;60894;42.544;1.516;2023-02-15T14:44:49;1.02;;;0.60;;
72771;SDS011;60894;42.544;1.516;2023-02-15T14:47:25;3.10;;;0.80;;
72771;SDS011;60894;42.544;1.516;2023-02-15T14:49:58;1.27;;;0.60;;
72771;SDS011;60894;42.544;1.516;2023-02-15T14:52:25;5.83;;;2.00;;
72771;SDS011;60894;42.544;1.516;2023-02-15T14:54:52;11.68;;;1.20;;
72771;SDS011;60894;42.544;1.516;2023-02-15T14:57:23;3.55;;;0.73;;
72771;SDS011;60894;42.544;1.516;2023-02-15T14:59:54;2.67;;;0.65;;
72771;SDS011;60894;42.544;1.516;2023-02-15T15:02:24;3.13;;;0.80;;
72771;SDS011;60894;42.544;1.516;2023-02-15T15:04:59;3.23;;;0.60;;
72771;SDS011;60894;42.544;1.516;2023-02-15T15:07:35;2.35;;;0.70;;
72771;SDS011;60894;42.544;1.516;2023-02-15T15:10:07;2.95;;;0.65;;
72771;SDS011;60894;42.544;1.516;2023-02-15T15:13:33;5.45;;;0.80;;
72771;SDS011;60894;42.544;1.516;2023-02-15T15:16:27;4.10;;;0.60;;
72771;SDS011;60894;42.544;1.516;2023-02-15T15:19:56;1.30;;;0.40;;
72771;SDS011;60894;42.544;1.516;2023-02-15T15:22:33;2.33;;;0.50;;
72771;SDS011;60894;42.544;1.516;2023-02-15T15:25:01;3.20;;;0.80;;
72771;SDS011;60894;42.544;1.516;2023-02-15T15:27:48;6.47;;;1.65;;
72771;SDS011;60894;42.544;1.516;2023-02-15T15:36:39;5.80;;;1.10;;
72771;SDS011;60894;42.544;1.516;2023-02-15T15:39:52;2.45;;;0.80;;
72771;SDS011;60894;42.544;1.516;2023-02-15T15:42:50;2.33;;;0.82;;